Time;durP1;ratioP1;P1;durP2;ratioP2;P2;SDS_P1;SDS_P2;PMS_P1;PMS_P2;Temp;Humidity;BMP_temperature;BMP_pressure;BME280_temperature;BME280_humidity;BME280_pressure;Samples;Min_cycle;Max_cycle;Signal;HPM_P1;HPM_P2
2023/05/10 00:01:45;;;;;;;2.27;2.07;;;9.80;95.90;9.70;100187.00;;;;4925879;28;121246;-73
2023/05/10 00:04:11;;;;;;;2.27;1.63;;;9.80;95.90;9.70;100179.00;;;;4923360;28;111101;-74
2023/05/10 00:06:42;;;;;;;2.87;1.90;;;9.70;96.10;9.70;100189.00;;;;4927675;28;108937;-74
2023/05/10 00:09:08;;;;;;;1.40;1.30;;;9.70;96.20;9.60;100175.00;;;;4910850;28;121870;-74
2023/05/10 00:11:33;;;;;;;4.77;2.00;;;9.70;96.20;9.60;100182.00;;;;4923590;28;121683;-73
2023/05/10 00:13:59;;;;;;;2.00;1.63;;;9.70;96.50;9.60;100176.00;;;;4926200;28;110570;-73
2023/05/10 00:16:25;;;;;;;1.60;1.33;;;9.60;96.60;9.50;100173.00;;;;4922718;28;108088;-74
2023/05/10 00:18:50;;;;;;;2.90;1.60;;;9.60;97.00;9.50;100177.00;;;;4926088;28;122437;-74
2023/05/10 00:21:16;;;;;;;1.97;1.40;;;9.60;97.10;9.50;100171.00;;;;4923964;28;121521;-72
2023/05/10 00:23:42;;;;;;;2.57;1.73;;;9.60;97.20;9.50;100172.00;;;;4924266;28;110503;-75
2023/05/10 00:26:07;;;;;;;2.23;1.57;;;9.60;97.40;9.50;100168.00;;;;4921564;28;109055;-73
2023/05/10 00:28:33;;;;;;;1.87;1.63;;;9.50;97.40;9.40;100170.00;;;;4924859;28;101813;-74
2023/05/10 00:30:59;;;;;;;1.40;1.30;;;9.50;97.60;9.40;100157.00;;;;4927855;28;121232;-74
2023/05/10 00:33:24;;;;;;;2.73;2.07;;;9.50;97.60;9.40;100157.00;;;;4925878;28;102945;-75
2023/05/10 00:35:50;;;;;;;3.17;2.03;;;9.50;97.80;9.40;100156.00;;;;4925855;28;95799;-72
2023/05/10 00:38:16;;;;;;;3.50;2.03;;;9.40;98.10;9.30;100161.00;;;;4924689;28;93320;-74
2023/05/10 00:40:41;;;;;;;5.07;1.90;;;9.40;98.20;9.30;100152.00;;;;4936490;28;121295;-73
2023/05/10 00:43:07;;;;;;;2.37;1.80;;;9.40;98.40;9.30;100151.00;;;;4925661;28;109234;-73
2023/05/10 00:45:35;;;;;;;1.43;1.33;;;9.40;98.30;9.30;100153.00;;;;4927247;28;108043;-73
2023/05/10 00:48:04;;;;;;;1.93;1.73;;;9.40;98.40;9.20;100147.00;;;;4930328;28;95228;-73
2023/05/10 00:50:32;;;;;;;2.97;2.20;;;9.30;98.50;9.20;100151.00;;;;4922611;28;115877;-71
2023/05/10 00:52:59;;;;;;;6.33;2.50;;;9.30;98.80;9.20;100153.00;;;;4923019;28;104612;-71
2023/05/10 00:55:25;;;;;;;1.70;1.60;;;9.30;98.80;9.20;100149.00;;;;4923319;28;92938;-73
2023/05/10 00:57:52;;;;;;;3.37;1.80;;;9.30;99.10;9.10;100150.00;;;;4927354;28;94236;-73
2023/05/10 01:00:18;;;;;;;2.87;1.87;;;9.20;99.10;9.10;100150.00;;;;4924819;28;111915;-74
2023/05/10 01:02:47;;;;;;;2.87;1.97;;;9.20;99.00;9.10;100147.00;;;;4925657;28;93093;-73
2023/05/10 01:05:16;;;;;;;2.17;1.13;;;9.20;99.20;9.10;100153.00;;;;4930342;28;93001;-72
2023/05/10 01:07:42;;;;;;;1.43;1.00;;;9.20;99.30;9.10;100144.00;;;;4923543;28;122815;-73
2023/05/10 01:10:09;;;;;;;2.00;1.70;;;9.10;99.30;9.00;100147.00;;;;4925778;28;122246;-73
2023/05/10 01:12:39;;;;;;;2.20;1.77;;;9.10;99.20;9.00;100143.00;;;;4926191;28;92963;-73
2023/05/10 01:15:08;;;;;;;1.80;1.70;;;9.10;99.30;9.00;100143.00;;;;4930184;28;93015;-73
2023/05/10 01:17:35;;;;;;;3.63;1.80;;;9.00;99.30;8.90;100137.00;;;;4926764;28;113973;-73
2023/05/10 01:20:02;;;;;;;1.83;1.60;;;9.00;99.50;8.90;100141.00;;;;4932916;28;121235;-73
2023/05/10 01:22:49;;;;;;;1.00;1.00;;;9.60;99.80;8.90;100139.00;;;;4927637;28;101128;-73
2023/05/10 01:26:00;;;;;;;1.30;1.20;;;9.00;99.60;8.80;100138.00;;;;4926437;28;94072;-73
2023/05/10 01:28:50;;;;;;;2.67;2.23;;;9.00;99.50;8.70;100132.00;;;;4929584;28;95010;-73
2023/05/10 01:31:49;;;;;;;2.57;1.83;;;8.90;99.60;8.70;100135.00;;;;4925263;28;104187;-73
2023/05/10 01:34:26;;;;;;;3.20;1.50;;;8.90;99.60;8.70;100123.00;;;;4921161;28;92973;-73
2023/05/10 01:37:02;;;;;;;1.83;1.40;;;8.80;99.90;8.60;100128.00;;;;4929062;28;104224;-73
2023/05/10 01:39:55;;;;;;;2.50;1.93;;;8.70;99.90;8.60;100122.00;;;;4932631;28;94954;-73
2023/05/10 01:42:25;;;;;;;1.60;1.50;;;8.70;99.90;8.60;100134.00;;;;4930270;28;102718;-73
2023/05/10 01:45:45;;;;;;;1.63;1.53;;;8.70;99.90;8.50;100124.00;;;;4931045;28;92196;-73
2023/05/10 01:48:12;;;;;;;2.73;1.67;;;8.70;99.90;8.50;100126.00;;;;4892555;28;93157;-73
2023/05/10 01:50:43;;;;;;;1.70;1.30;;;8.70;99.90;8.50;100133.00;;;;4875964;28;122396;-73
2023/05/10 01:53:11;;;;;;;2.50;1.93;;;8.60;99.90;8.50;100128.00;;;;4917145;28;94283;-73
2023/05/10 01:55:46;;;;;;;2.50;1.77;;;8.60;99.90;8.50;100130.00;;;;4926948;28;100390;-73
2023/05/10 01:58:19;;;;;;;2.20;1.93;;;8.60;99.90;8.40;100122.00;;;;4929160;28;93238;-73
2023/05/10 02:00:47;;;;;;;1.93;1.63;;;8.60;99.90;8.40;100123.00;;;;4929575;28;94092;-73
2023/05/10 02:03:14;;;;;;;1.67;1.40;;;8.50;99.90;8.40;100128.00;;;;4927906;28;94871;-73
2023/05/10 02:05:44;;;;;;;3.37;2.00;;;8.50;99.90;8.40;100134.00;;;;4927375;28;98554;-73
2023/05/10 02:08:11;;;;;;;1.90;1.80;;;8.50;99.90;8.30;100128.00;;;;4926637;28;93076;-73
2023/05/10 02:10:39;;;;;;;2.27;1.70;;;8.50;99.90;8.30;100126.00;;;;4928771;28;121424;-73
2023/05/10 02:13:07;;;;;;;2.63;1.77;;;8.40;99.90;8.30;100132.00;;;;4924814;28;93028;-73
2023/05/10 02:15:34;;;;;;;1.87;1.70;;;8.40;99.90;8.30;100127.00;;;;4924783;28;93103;-73
2023/05/10 02:18:02;;;;;;;1.67;1.50;;;8.40;99.90;8.20;100125.00;;;;4926591;28;93876;-73
2023/05/10 02:20:29;;;;;;;1.53;1.43;;;8.30;99.90;8.20;100119.00;;;;4929894;28;111550;-73
2023/05/10 02:22:56;;;;;;;1.63;1.47;;;8.30;99.90;8.20;100117.00;;;;4928488;28;122728;-73
2023/05/10 02:25:24;;;;;;;2.03;1.80;;;8.30;99.90;8.20;100111.00;;;;4929732;28;93268;-73
2023/05/10 02:27:52;;;;;;;1.00;0.90;;;8.30;99.90;8.20;100118.00;;;;4909837;28;92854;-72
2023/05/10 02:30:19;;;;;;;1.90;1.40;;;8.30;99.90;8.20;100111.00;;;;4927875;28;112009;-71
2023/05/10 02:32:45;;;;;;;3.07;1.93;;;8.70;99.90;8.20;100115.00;;;;4931541;28;117391;-73
2023/05/10 02:35:11;;;;;;;1.43;1.33;;;8.30;99.90;8.20;100106.00;;;;4922488;28;103919;-75
2023/05/10 02:37:39;;;;;;;2.20;1.87;;;8.30;99.90;8.20;100106.00;;;;4929661;28;108482;-74
2023/05/10 02:40:07;;;;;;;1.00;1.00;;;8.20;99.90;8.20;100115.00;;;;4928450;28;95485;-74
2023/05/10 02:42:37;;;;;;;2.23;1.77;;;8.30;99.90;8.20;100105.00;;;;4928222;28;110522;-73
2023/05/10 02:45:11;;;;;;;1.90;1.43;;;8.30;99.90;8.10;100106.00;;;;4909194;28;93298;-74
2023/05/10 02:47:36;;;;;;;1.30;1.20;;;8.20;99.90;8.10;100103.00;;;;4928154;28;92934;-73
2023/05/10 02:50:03;;;;;;;2.10;1.80;;;8.20;99.90;8.10;100110.00;;;;4924664;28;110020;-74
2023/05/10 02:52:44;;;;;;;2.10;1.37;;;8.20;99.90;8.10;100096.00;;;;4929958;28;94585;-74
2023/05/10 02:55:15;;;;;;;1.97;1.67;;;8.20;99.90;8.10;100108.00;;;;4928841;28;98747;-73
2023/05/10 02:57:48;;;;;;;1.93;1.77;;;8.20;99.90;8.10;100104.00;;;;4927690;28;93426;-73
2023/05/10 03:00:13;;;;;;;2.03;1.70;;;8.20;99.90;8.10;100094.00;;;;4929065;28;92529;-73
2023/05/10 03:02:39;;;;;;;2.70;1.90;;;8.10;99.90;8.10;100105.00;;;;4924773;28;93230;-73
2023/05/10 03:05:05;;;;;;;2.67;1.53;;;8.20;99.90;8.10;100088.00;;;;4926540;28;92891;-74
2023/05/10 03:07:31;;;;;;;1.73;1.53;;;8.20;99.90;8.10;100093.00;;;;4927889;28;93873;-73
2023/05/10 03:09:57;;;;;;;1.67;1.57;;;8.20;99.90;8.10;100089.00;;;;4926218;28;122807;-74
2023/05/10 03:13:10;;;;;;;2.13;1.50;;;8.20;99.90;8.10;100091.00;;;;4925986;28;121529;-71
2023/05/10 03:15:58;;;;;;;3.43;1.70;;;8.20;99.90;8.10;100085.00;;;;4926025;28;93073;-72
2023/05/10 03:18:51;;;;;;;3.93;1.30;;;8.20;99.90;8.10;100092.00;;;;4926136;28;98960;-73
2023/05/10 03:21:18;;;;;;;1.13;1.07;;;8.20;99.90;8.10;100085.00;;;;4924674;28;114978;-74
2023/05/10 03:24:00;;;;;;;1.33;1.23;;;8.20;99.90;8.20;100098.00;;;;4927031;28;122429;-73
2023/05/10 03:26:28;;;;;;;3.27;2.13;;;8.30;99.90;8.10;100091.00;;;;4928341;28;92220;-72
2023/05/10 03:28:55;;;;;;;2.63;1.43;;;8.20;99.90;8.20;100100.00;;;;4925598;28;92965;-71
2023/05/10 03:31:21;;;;;;;4.63;1.47;;;8.30;99.90;8.10;100108.00;;;;4930182;28;93316;-71
2023/05/10 03:33:52;;;;;;;2.13;1.47;;;8.20;99.90;8.20;100116.00;;;;4929617;28;121988;-74
2023/05/10 03:36:18;;;;;;;3.67;1.50;;;8.30;99.90;8.20;100110.00;;;;4928639;28;93015;-73
2023/05/10 03:38:44;;;;;;;3.63;1.47;;;8.40;99.90;8.20;100106.00;;;;4925124;28;99372;-72
2023/05/10 03:41:22;;;;;;;2.03;1.30;;;8.30;99.90;8.20;100105.00;;;;4926331;28;114470;-74
2023/05/10 03:43:48;;;;;;;1.63;1.53;;;8.30;99.90;8.20;100097.00;;;;4923922;28;93026;-73
2023/05/10 03:46:13;;;;;;;2.57;2.07;;;8.30;99.90;8.20;100099.00;;;;4927077;28;110173;-71
2023/05/10 03:48:39;;;;;;;1.33;1.23;;;8.30;99.90;8.20;100095.00;;;;4925233;28;109782;-74
2023/05/10 03:51:05;;;;;;;2.77;1.70;;;8.30;99.90;8.30;100091.00;;;;4920163;28;122796;-74
2023/05/10 03:53:30;;;;;;;1.97;1.60;;;8.30;99.90;8.30;100096.00;;;;4924956;28;121011;-73
2023/05/10 03:55:56;;;;;;;1.53;1.37;;;8.40;99.90;8.30;100101.00;;;;4924551;28;110274;-73
2023/05/10 03:58:22;;;;;;;1.87;1.47;;;8.40;99.90;8.30;100097.00;;;;4920245;28;110293;-72
2023/05/10 04:00:47;;;;;;;2.10;1.77;;;8.40;99.90;8.40;100094.00;;;;4926281;28;116730;-74
2023/05/10 04:03:13;;;;;;;2.13;1.90;;;8.40;99.90;8.40;100103.00;;;;4920057;28;122519;-72
2023/05/10 04:05:39;;;;;;;2.20;1.60;;;8.50;99.90;8.50;100097.00;;;;4924591;28;110852;-73
2023/05/10 04:08:05;;;;;;;4.20;1.50;;;8.50;99.90;8.50;100103.00;;;;4923636;28;92776;-74
2023/05/10 04:10:32;;;;;;;2.03;1.57;;;8.60;99.90;8.60;100095.00;;;;4924822;28;123205;-74
2023/05/10 04:12:57;;;;;;;2.43;1.53;;;8.60;99.90;8.70;100099.00;;;;4922517;28;93929;-73
2023/05/10 04:15:23;;;;;;;2.20;1.40;;;8.70;99.90;8.80;100091.00;;;;4923258;28;109009;-73
2023/05/10 04:17:50;;;;;;;1.90;1.53;;;8.80;99.90;8.80;100096.00;;;;4925000;28;107327;-74
2023/05/10 04:20:15;;;;;;;2.63;1.90;;;8.80;99.90;8.90;100089.00;;;;4923699;28;93210;-73
2023/05/10 04:22:41;;;;;;;2.57;1.50;;;8.90;99.90;9.00;100087.00;;;;4920971;28;116463;-73
2023/05/10 04:25:07;;;;;;;1.93;1.83;;;9.00;99.90;9.00;100085.00;;;;4922477;28;92966;-74
2023/05/10 04:27:33;;;;;;;1.90;1.47;;;9.10;99.90;9.10;100086.00;;;;4927387;28;92921;-73
2023/05/10 04:29:59;;;;;;;2.87;1.50;;;9.20;99.90;9.20;100096.00;;;;4919426;28;123082;-72
2023/05/10 04:32:24;;;;;;;2.37;1.83;;;9.30;99.90;9.30;100099.00;;;;4924239;28;122109;-74
2023/05/10 04:34:53;;;;;;;2.17;1.33;;;9.40;99.90;9.50;100093.00;;;;4924638;28;109593;-72
2023/05/10 04:37:21;;;;;;;0.77;0.77;;;9.50;99.90;9.60;100092.00;;;;4926030;28;92869;-74
2023/05/10 04:39:46;;;;;;;1.53;1.30;;;9.60;99.90;9.70;100091.00;;;;4922120;28;93328;-71
2023/05/10 04:42:14;;;;;;;2.57;1.60;;;9.70;99.90;9.80;100097.00;;;;4923385;28;122054;-74
2023/05/10 04:44:40;;;;;;;6.10;1.20;;;9.80;99.90;9.90;100098.00;;;;4923480;28;92808;-72
2023/05/10 04:47:06;;;;;;;4.67;1.20;;;9.90;99.90;10.00;100104.00;;;;4926183;28;93762;-72
2023/05/10 04:49:32;;;;;;;1.80;1.67;;;10.10;99.90;10.20;100095.00;;;;4927385;28;113017;-72
2023/05/10 04:51:57;;;;;;;1.70;1.23;;;10.20;99.90;10.30;100088.00;;;;4924073;28;122585;-71
2023/05/10 04:54:23;;;;;;;1.77;1.67;;;10.30;99.90;10.50;100095.00;;;;4924198;28;93262;-71
2023/05/10 04:56:49;;;;;;;2.37;0.80;;;10.40;99.90;10.60;100104.00;;;;4923215;28;100468;-73
2023/05/10 04:59:15;;;;;;;1.90;1.60;;;10.60;99.90;10.80;100104.00;;;;4919931;28;121631;-73
2023/05/10 05:01:40;;;;;;;3.30;1.57;;;10.80;99.90;11.00;100096.00;;;;4922566;28;122068;-73
2023/05/10 05:04:06;;;;;;;1.37;1.17;;;10.90;99.90;11.10;100101.00;;;;4922396;28;109013;-73
2023/05/10 05:06:32;;;;;;;1.30;1.10;;;11.10;99.90;11.20;100103.00;;;;4923045;28;92885;-73
2023/05/10 05:08:58;;;;;;;1.30;1.20;;;11.20;99.90;11.40;100088.00;;;;4921844;28;121732;-73
2023/05/10 05:11:23;;;;;;;1.70;1.43;;;11.30;99.90;11.50;100096.00;;;;4920164;28;120542;-73
2023/05/10 05:13:49;;;;;;;1.67;1.03;;;11.50;99.90;11.70;100097.00;;;;4922721;28;92938;-74
2023/05/10 05:16:15;;;;;;;1.57;1.23;;;11.60;99.90;11.80;100093.00;;;;4926408;28;109535;-72
2023/05/10 05:18:40;;;;;;;1.30;1.20;;;11.80;99.90;12.00;100088.00;;;;4921435;28;122079;-73
2023/05/10 05:21:19;;;;;;;1.27;1.17;;;11.90;99.90;12.20;100089.00;;;;4922737;28;122699;-72
2023/05/10 05:23:45;;;;;;;1.67;1.50;;;12.10;99.60;12.30;100082.00;;;;4920140;28;93009;-73
2023/05/10 05:26:11;;;;;;;1.47;1.30;;;12.20;99.40;12.50;100085.00;;;;4921352;28;92832;-71
2023/05/10 05:28:37;;;;;;;1.63;1.00;;;12.40;99.20;12.70;100086.00;;;;4920730;28;93270;-73
2023/05/10 05:31:05;;;;;;;2.73;1.10;;;12.60;99.00;12.90;100087.00;;;;4924516;28;92970;-73
2023/05/10 05:33:31;;;;;;;2.63;1.40;;;12.80;98.50;13.20;100095.00;;;;4921358;28;93937;-72
2023/05/10 05:35:56;;;;;;;2.10;1.10;;;13.00;98.20;13.40;100089.00;;;;4924319;28;99237;-72
2023/05/10 05:38:22;;;;;;;2.43;1.30;;;13.20;97.70;13.60;100090.00;;;;4903281;28;122323;-72
2023/05/10 05:40:47;;;;;;;1.77;1.00;;;13.50;97.40;13.90;100096.00;;;;4923663;28;121554;-73
2023/05/10 05:43:13;;;;;;;1.43;1.30;;;13.70;96.50;14.10;100095.00;;;;4922748;28;110795;-72
2023/05/10 05:45:39;;;;;;;1.20;1.10;;;13.90;96.10;14.30;100087.00;;;;4925228;28;108951;-74
2023/05/10 05:48:05;;;;;;;1.30;1.17;;;14.10;95.70;14.60;100091.00;;;;4922629;28;93110;-72
2023/05/10 05:50:31;;;;;;;0.57;0.47;;;14.40;94.80;14.80;100096.00;;;;4923517;28;110750;-71
2023/05/10 05:52:57;;;;;;;1.02;0.93;;;14.60;94.40;15.00;100097.00;;;;4921797;28;92101;-73
2023/05/10 05:55:23;;;;;;;0.55;0.55;;;14.80;92.60;15.20;100096.00;;;;4926739;28;92879;-73
2023/05/10 05:57:49;;;;;;;0.95;0.70;;;15.00;90.60;15.30;100090.00;;;;4928942;28;93988;-73
2023/05/10 06:00:15;;;;;;;1.05;0.75;;;15.10;90.30;15.40;100084.00;;;;4928273;28;122699;-73
2023/05/10 06:02:41;;;;;;;0.40;0.40;;;15.30;86.10;15.50;100090.00;;;;4928700;28;93032;-73
2023/05/10 06:05:08;;;;;;;1.50;0.80;;;15.10;85.50;15.70;100101.00;;;;4928726;28;108166;-74
2023/05/10 06:07:33;;;;;;;0.47;0.47;;;15.50;84.60;15.90;100099.00;;;;4927512;28;92972;-71
2023/05/10 06:09:59;;;;;;;2.33;1.38;;;15.70;82.40;16.00;100102.00;;;;4924286;28;121554;-74
2023/05/10 06:12:24;;;;;;;0.70;0.70;;;15.80;82.30;16.10;100088.00;;;;4923831;28;111101;-71
2023/05/10 06:14:50;;;;;;;1.02;0.60;;;16.00;78.00;16.20;100100.00;;;;4924317;28;108169;-72
2023/05/10 06:17:16;;;;;;;1.73;0.68;;;16.10;77.40;16.30;100104.00;;;;4925267;28;93033;-71
2023/05/10 06:19:42;;;;;;;1.15;1.05;;;16.20;77.30;16.50;100088.00;;;;4925156;28;120669;-72
2023/05/10 06:22:07;;;;;;;0.47;0.47;;;16.30;74.40;16.50;100099.00;;;;4923822;28;110563;-73
2023/05/10 06:24:33;;;;;;;0.30;0.30;;;16.40;71.90;16.60;100099.00;;;;4926501;28;108904;-73
2023/05/10 06:27:00;;;;;;;2.72;0.73;;;16.50;71.80;16.60;100096.00;;;;4924382;28;122256;-74
2023/05/10 06:29:26;;;;;;;0.50;0.50;;;16.50;70.80;16.70;100096.00;;;;4927549;28;93392;-73
2023/05/10 06:31:51;;;;;;;1.75;0.80;;;16.60;70.90;16.80;100093.00;;;;4926581;28;110429;-73
2023/05/10 06:34:17;;;;;;;1.35;0.60;;;16.70;71.10;17.00;100101.00;;;;4926062;28;108192;-72
2023/05/10 06:36:43;;;;;;;1.67;0.50;;;16.80;69.70;17.10;100105.00;;;;4922664;28;124485;-73
2023/05/10 06:39:08;;;;;;;0.75;0.68;;;16.90;69.20;17.20;100104.00;;;;4925042;28;122798;-72
2023/05/10 06:41:34;;;;;;;0.90;0.90;;;17.10;68.00;17.30;100098.00;;;;4924653;28;109307;-72
2023/05/10 06:44:00;;;;;;;2.38;0.60;;;17.20;65.70;17.30;100102.00;;;;4927309;28;108104;-74
2023/05/10 06:46:25;;;;;;;1.13;0.63;;;17.20;64.80;17.40;100107.00;;;;4925950;28;93172;-72
2023/05/10 06:48:51;;;;;;;1.23;0.77;;;17.30;65.30;17.40;100097.00;;;;4923257;28;122387;-72
2023/05/10 06:51:17;;;;;;;1.27;1.00;;;17.30;64.20;17.60;100108.00;;;;4925732;28;108652;-71
2023/05/10 06:53:43;;;;;;;1.90;0.70;;;17.40;64.20;17.70;100106.00;;;;4928163;28;93325;-73
2023/05/10 06:56:08;;;;;;;1.65;1.05;;;17.50;62.90;17.70;100111.00;;;;4924109;28;123058;-73
2023/05/10 06:58:34;;;;;;;0.85;0.45;;;17.60;62.80;17.90;100109.00;;;;4928099;28;93597;-72
2023/05/10 07:01:04;;;;;;;0.73;0.50;;;17.70;62.20;18.00;100109.00;;;;4927708;28;92944;-73
2023/05/10 07:03:31;;;;;;;3.30;1.23;;;17.80;60.70;18.00;100103.00;;;;4924571;28;93072;-74
2023/05/10 07:06:03;;;;;;;0.95;0.90;;;17.80;60.30;18.00;100101.00;;;;4931145;28;106620;-71
2023/05/10 07:08:30;;;;;;;0.77;0.65;;;17.90;60.00;18.10;100099.00;;;;4914767;28;93360;-71
2023/05/10 07:11:04;;;;;;;0.47;0.47;;;18.00;59.60;18.20;100101.00;;;;4924241;28;92790;-75
2023/05/10 07:13:31;;;;;;;0.73;0.68;;;18.10;59.90;18.30;100108.00;;;;4910039;28;94079;-74
2023/05/10 07:15:58;;;;;;;0.70;0.65;;;18.20;59.70;18.40;100100.00;;;;4926824;28;93463;-74
2023/05/10 07:18:25;;;;;;;2.05;1.10;;;18.30;59.30;18.60;100096.00;;;;4925386;28;93386;-75
2023/05/10 07:20:51;;;;;;;0.55;0.40;;;18.40;59.20;18.80;100101.00;;;;4928238;28;93009;-74
2023/05/10 07:23:19;;;;;;;0.88;0.82;;;18.60;58.80;18.90;100094.00;;;;4926280;28;92905;-73
2023/05/10 07:25:47;;;;;;;1.08;0.73;;;18.70;57.90;18.90;100087.00;;;;4927136;28;94076;-72
2023/05/10 07:28:14;;;;;;;1.33;0.63;;;18.80;57.60;19.00;100093.00;;;;4925659;28;93242;-73
2023/05/10 07:30:40;;;;;;;0.82;0.45;;;18.80;57.60;19.20;100088.00;;;;4925821;28;92189;-73
2023/05/10 07:33:05;;;;;;;1.73;1.20;;;19.00;56.60;19.30;100103.00;;;;4930414;28;92870;-74
2023/05/10 07:35:31;;;;;;;0.57;0.50;;;19.10;56.50;19.40;100101.00;;;;4928718;28;122326;-73
2023/05/10 07:37:57;;;;;;;11.35;2.17;;;19.20;56.60;19.40;100101.00;;;;4928990;28;93654;-73
2023/05/10 07:40:22;;;;;;;3.50;1.25;;;19.30;56.20;19.50;100104.00;;;;4922761;28;99913;-73
2023/05/10 07:42:48;;;;;;;1.35;0.73;;;19.40;55.50;19.70;100103.00;;;;4926074;28;109643;-73
2023/05/10 07:45:14;;;;;;;0.50;0.50;;;19.50;55.90;19.70;100100.00;;;;4926653;28;122743;-74
2023/05/10 07:47:39;;;;;;;0.98;0.77;;;19.60;55.20;19.80;100103.00;;;;4924765;28;123060;-73
2023/05/10 07:50:06;;;;;;;3.17;1.42;;;19.60;55.80;19.80;100100.00;;;;4926461;28;109080;-74
2023/05/10 07:52:32;;;;;;;0.60;0.57;;;19.70;54.30;19.90;100104.00;;;;4926232;28;93053;-73
2023/05/10 07:54:57;;;;;;;0.85;0.80;;;19.70;55.00;20.00;100108.00;;;;4928231;28;121647;-75
2023/05/10 07:57:23;;;;;;;0.80;0.80;;;19.80;54.60;20.10;100103.00;;;;4924985;28;93224;-72
2023/05/10 07:59:49;;;;;;;0.90;0.73;;;19.90;54.10;20.10;100108.00;;;;4925673;28;92850;-75
2023/05/10 08:02:15;;;;;;;1.08;0.90;;;20.00;53.20;20.10;100098.00;;;;4924421;28;95128;-74
2023/05/10 08:04:40;;;;;;;0.80;0.80;;;20.00;53.20;20.10;100106.00;;;;4923852;28;93009;-73
2023/05/10 08:07:07;;;;;;;1.10;0.93;;;20.00;53.50;20.10;100104.00;;;;4925486;28;121310;-73
2023/05/10 08:09:33;;;;;;;0.95;0.93;;;20.00;53.60;20.10;100098.00;;;;4925823;28;94904;-72
2023/05/10 08:11:59;;;;;;;0.88;0.88;;;20.00;53.10;20.00;100107.00;;;;4925118;28;92800;-74
2023/05/10 08:14:26;;;;;;;1.50;0.90;;;19.80;52.90;20.00;100103.00;;;;4926545;28;95868;-74
2023/05/10 08:16:52;;;;;;;1.98;0.85;;;19.90;52.60;19.90;100105.00;;;;4925193;28;93823;-73
2023/05/10 08:19:19;;;;;;;0.93;0.60;;;19.80;52.70;19.90;100111.00;;;;4927581;28;92200;-73
2023/05/10 08:21:45;;;;;;;1.25;0.98;;;19.80;53.10;19.90;100106.00;;;;4927115;28;92826;-73
2023/05/10 08:24:11;;;;;;;0.77;0.77;;;19.70;53.60;20.00;100106.00;;;;4923776;28;93589;-74
2023/05/10 08:26:37;;;;;;;0.85;0.70;;;19.80;53.90;20.20;100108.00;;;;4925435;28;122488;-73
2023/05/10 08:29:02;;;;;;;1.05;0.98;;;20.00;53.50;20.40;100124.00;;;;4925389;28;102035;-72
2023/05/10 08:31:28;;;;;;;1.13;0.80;;;20.10;52.80;20.40;100116.00;;;;4924216;28;108644;-72
2023/05/10 08:33:54;;;;;;;0.70;0.40;;;20.20;52.10;20.30;100112.00;;;;4923171;28;123171;-75
2023/05/10 08:36:21;;;;;;;0.98;0.70;;;20.10;52.30;20.40;100112.00;;;;4924627;28;93662;-72
2023/05/10 08:38:52;;;;;;;1.40;0.80;;;20.20;52.50;20.40;100120.00;;;;4923529;28;92834;-73
2023/05/10 08:41:20;;;;;;;2.85;0.82;;;20.20;52.70;20.50;100117.00;;;;4925948;28;92995;-73
2023/05/10 08:43:47;;;;;;;0.90;0.82;;;20.30;52.20;20.50;100122.00;;;;4927066;28;93611;-73
2023/05/10 08:46:17;;;;;;;1.27;0.82;;;20.30;52.20;20.50;100123.00;;;;4924402;28;93749;-75
2023/05/10 08:48:45;;;;;;;0.68;0.52;;;20.40;52.60;20.70;100125.00;;;;4925051;28;92857;-73
2023/05/10 08:51:14;;;;;;;1.02;0.85;;;20.50;52.40;20.80;100132.00;;;;4920748;28;94157;-72
2023/05/10 08:53:40;;;;;;;2.17;1.00;;;20.60;51.90;20.70;100128.00;;;;4925111;28;94421;-73
2023/05/10 08:56:06;;;;;;;1.38;0.88;;;20.50;51.50;20.80;100132.00;;;;4925122;28;123502;-73
2023/05/10 08:58:32;;;;;;;0.95;0.60;;;20.50;52.30;21.00;100122.00;;;;4924602;28;96653;-75
2023/05/10 09:01:00;;;;;;;1.77;1.00;;;20.70;52.10;21.10;100124.00;;;;4922729;28;108429;-75
2023/05/10 09:03:26;;;;;;;1.40;1.02;;;20.80;52.00;21.30;100137.00;;;;4921927;28;124134;-72
2023/05/10 09:05:52;;;;;;;0.70;0.70;;;20.80;51.90;21.50;100136.00;;;;4922898;28;93074;-75
2023/05/10 09:08:18;;;;;;;1.13;1.05;;;21.20;51.30;21.60;100136.00;;;;4924337;28;109174;-75
2023/05/10 09:10:47;;;;;;;1.40;0.73;;;21.40;51.00;21.70;100140.00;;;;4929503;28;93116;-76
2023/05/10 09:13:13;;;;;;;1.15;1.05;;;21.50;50.60;21.80;100139.00;;;;4921561;28;93132;-73
2023/05/10 09:15:39;;;;;;;0.98;0.75;;;21.50;50.10;21.90;100147.00;;;;4924316;28;94213;-74
2023/05/10 09:18:05;;;;;;;0.60;0.60;;;21.60;49.90;21.80;100148.00;;;;4909137;28;110019;-74
2023/05/10 09:20:31;;;;;;;1.23;1.13;;;21.60;49.60;21.70;100152.00;;;;4921477;28;92842;-74
2023/05/10 09:22:56;;;;;;;0.80;0.75;;;21.50;49.30;21.70;100142.00;;;;4924399;28;110325;-75
2023/05/10 09:25:22;;;;;;;1.02;0.73;;;21.50;50.00;21.90;100142.00;;;;4927646;28;109568;-73
2023/05/10 09:27:49;;;;;;;1.83;0.90;;;21.60;50.20;22.20;100139.00;;;;4928050;28;110104;-74
2023/05/10 09:30:28;;;;;;;2.08;1.00;;;21.80;50.10;22.50;100150.00;;;;4928707;28;92788;-75
2023/05/10 09:32:56;;;;;;;1.13;1.02;;;22.10;49.50;22.50;100150.00;;;;4930426;28;104650;-74
2023/05/10 09:35:27;;;;;;;1.27;0.75;;;22.20;49.20;22.70;100144.00;;;;4926432;28;94014;-74
2023/05/10 09:37:56;;;;;;;1.55;0.82;;;22.30;49.40;22.90;100149.00;;;;4930331;28;92970;-80
2023/05/10 09:40:25;;;;;;;1.13;0.70;;;22.60;48.20;22.80;100144.00;;;;4928073;28;94160;-74
2023/05/10 09:43:06;;;;;;;2.13;0.93;;;22.60;47.40;22.70;100151.00;;;;4929128;28;92814;-73
2023/05/10 09:45:35;;;;;;;2.17;1.15;;;22.50;47.10;22.50;100141.00;;;;4929295;28;93656;-78
2023/05/10 09:48:02;;;;;;;3.88;1.33;;;22.30;47.60;22.60;100147.00;;;;4929228;28;92764;-77
2023/05/10 09:50:29;;;;;;;1.05;0.73;;;22.30;48.00;22.60;100143.00;;;;4914146;28;93286;-79
2023/05/10 09:53:03;;;;;;;1.13;1.02;;;22.30;48.00;22.70;100138.00;;;;4923143;28;93326;-76
2023/05/10 09:55:45;;;;;;;3.63;0.98;;;22.40;48.30;23.00;100138.00;;;;4924647;28;94118;-76
2023/05/10 09:58:13;;;;;;;1.85;0.95;;;22.60;47.40;23.00;100140.00;;;;4924317;28;92387;-80
2023/05/10 10:00:41;;;;;;;1.38;1.02;;;22.70;46.60;22.90;100134.00;;;;4923192;28;93341;-76
2023/05/10 10:03:14;;;;;;;0.93;0.80;;;22.60;46.40;22.80;100147.00;;;;4925329;28;100700;-77
2023/05/10 10:05:45;;;;;;;1.10;0.60;;;22.60;46.30;22.80;100123.00;;;;4926998;28;94024;-77
2023/05/10 10:08:12;;;;;;;0.85;0.77;;;22.50;46.30;22.80;100140.00;;;;4907500;28;94243;-78
2023/05/10 10:10:40;;;;;;;2.55;1.10;;;22.50;47.20;22.90;100138.00;;;;4926877;28;93002;-76
2023/05/10 10:13:06;;;;;;;0.68;0.65;;;22.60;46.90;22.90;100134.00;;;;4928308;28;93175;-76
2023/05/10 10:15:33;;;;;;;3.63;1.83;;;22.60;46.70;23.10;100134.00;;;;4937302;28;116400;-79
2023/05/10 10:18:00;;;;;;;1.00;0.82;;;22.70;46.60;23.20;100141.00;;;;4917013;28;93014;-76
2023/05/10 10:20:29;;;;;;;1.13;0.70;;;22.80;46.30;23.30;100133.00;;;;4928336;28;93254;-82
2023/05/10 10:22:55;;;;;;;0.63;0.60;;;22.90;46.20;23.50;100138.00;;;;4927094;28;92872;-80
2023/05/10 10:25:24;;;;;;;0.93;0.80;;;23.00;46.50;23.60;100124.00;;;;4930636;28;93196;-78
2023/05/10 10:27:52;;;;;;;0.90;0.90;;;23.20;45.90;23.70;100130.00;;;;4914030;28;94096;-78
2023/05/10 10:30:29;;;;;;;1.65;1.00;;;23.30;45.50;24.00;100124.00;;;;4929626;28;93897;-78
2023/05/10 10:33:34;;;;;;;1.55;0.88;;;23.40;45.30;24.40;100132.00;;;;4927544;28;93229;-80
2023/05/10 10:36:02;;;;;;;1.92;0.93;;;23.80;45.10;24.40;100130.00;;;;4929376;28;93883;-82
2023/05/10 10:38:47;;;;;;;1.00;0.68;;;24.00;44.20;24.50;100137.00;;;;4926052;28;95741;-78
2023/05/10 10:41:33;;;;;;;1.55;0.70;;;24.10;44.10;24.60;100139.00;;;;4921646;28;92992;-79
2023/05/10 10:44:26;;;;;;;0.50;0.50;;;24.20;43.70;24.70;100129.00;;;;4925016;28;93688;-78
2023/05/10 10:47:11;;;;;;;1.48;0.73;;;24.30;43.60;24.90;100138.00;;;;4925719;28;93672;-81
2023/05/10 10:49:40;;;;;;;4.68;1.38;;;24.40;43.60;25.00;100134.00;;;;4926417;28;92114;-80
2023/05/10 10:52:35;;;;;;;0.77;0.77;;;24.50;43.10;25.00;100121.00;;;;4924577;28;93076;-78
2023/05/10 10:55:09;;;;;;;1.27;0.95;;;24.60;42.60;25.10;100124.00;;;;4925773;28;94323;-77
2023/05/10 10:57:44;;;;;;;0.77;0.77;;;24.70;42.70;25.20;100130.00;;;;4922733;28;93801;-80